Stratton, ME (04982)

5:12 PM EDT on July 29, 2015 (GMT -0400)
Hedgehog Village | | Change Station
CLOSE
Current Station
Personal Weather Station
Location: Maine, ME
Elevation: 1175 ft
Nearby Weather Stations

Elev 1175 ft 45.13 °N, 70.42 °W | Updated 22 seconds ago

Overcast
Overcast
80.1 °F
Feels Like 82 °F
N
0.0
Wind Variable Wind from SSE
Gusts 0.0 mph

Today
High -- | Low -- °F
--% Chance of Precip.
Yesterday
High -- | Low -- °F
Precip. -- in
5:23 AM 8:12 PM
Waxing Gibbous, 97% visible
Pressure 29.91 in
Visibility 10.0 miles
Clouds Clear
Heat Index 82 °F
Dew Point 67 °F
Humidity 64%
Rainfall 0.00 in
Snow Depth Not available.
UV 2.0 out of 12
Pollen 4.90 out of 12
Air Quality Not available.
Flu Activity Not available.
METAR KBML 292052Z AUTO VRB04KT 10SM CLR 29/21 A2992 RMK AO2 RAE1957 SLP127 P0000 60010 T02890211 56010

More Conditions Fewer Conditions

Pressure 29.91 in
Visibility 10.0 miles
Clouds Clear
Heat Index 82 °F
Dew Point 67 °F
Humidity 64%
Rainfall 0.00 in
Snow Depth Not available.
UV 2.0 out of 12
Pollen 4.90 out of 12
Air Quality Not available.
Flu Activity Not available.
METAR KBML 292052Z AUTO VRB04KT 10SM CLR 29/21 A2992 RMK AO2 RAE1957 SLP127 P0000 60010 T02890211 56010

More Conditions Fewer Conditions

10-Day Weather Forecast

×

Almanac

Astronomy

Jul. 29, 2015 Rise Set
Actual Time
Civil Twilight
Nautical Twilight
Astronomical Twilight
Moon
Length of Visible Light
Length of Day
Tomorrow will be .
, % of the Moon is Illuminated

Today's Extremes

State Highs State Lows

Community

WunderPhotos

Upload Photos

1,842,175 photos uploaded!

WunderBlogs® & News

Nearby

Air Quality

  Air Quality AQ Index Pollutant
Not available.

Snow Depth

Station Depth Elevation

Earthquake Activity

City Distance Mag. Time & Date
Minimum magnitude displayed is 2.5.

Coastal Water Temperatures

Place Temperature

Stations

Nearby Weather Stations

Station Location Temp. Windchill Dew Point Humidity Wind Precip. Elev Updated Type